Time;durP1;ratioP1;P1;durP2;ratioP2;P2;SDS_P1;SDS_P2;PMS_P1;PMS_P2;Temp;Humidity;BMP_temperature;BMP_pressure;BME280_temperature;BME280_humidity;BME280_pressure;Samples;Min_cycle;Max_cycle;Signal;HPM_P1;HPM_P2
2023/03/08 00:00:54;;;;;;;8.02;5.55;;;;;;;;;;5037645;28;20423;-85
2023/03/08 00:03:24;;;;;;;12.88;5.88;;;;;;;;;;5030316;28;20037;-85
2023/03/08 00:05:51;;;;;;;8.38;6.10;;;;;;;;;;5039724;28;20506;-85
2023/03/08 00:08:21;;;;;;;13.70;6.18;;;;;;;;;;5014082;28;20117;-85
2023/03/08 00:11:15;;;;;;;10.95;7.55;;;;;;;;;;5055458;23;20053;-87
2023/03/08 00:13:42;;;;;;;11.70;6.88;;;;;;;;;;5034734;28;20049;-87
2023/03/08 00:16:15;;;;;;;9.93;7.00;;;;;;;;;;5022801;28;20045;-86
2023/03/08 00:18:44;;;;;;;7.70;5.75;;;;;;;;;;5017453;28;20565;-88
2023/03/08 00:21:14;;;;;;;9.00;5.93;;;;;;;;;;5031523;28;20056;-86
2023/03/08 00:23:45;;;;;;;7.28;5.68;;;;;;;;;;5022300;28;20053;-87
2023/03/08 00:26:15;;;;;;;9.32;6.97;;;;;;;;;;5014790;28;20071;-89
2023/03/08 00:28:42;;;;;;;8.65;6.28;;;;;;;;;;5026387;28;20105;-86
2023/03/08 00:31:11;;;;;;;9.00;5.85;;;;;;;;;;5031729;28;20059;-86
2023/03/08 00:33:39;;;;;;;9.90;6.97;;;;;;;;;;5031093;28;20048;-86
2023/03/08 00:36:10;;;;;;;8.30;5.97;;;;;;;;;;5021553;28;20044;-88
2023/03/08 00:38:38;;;;;;;9.18;5.97;;;;;;;;;;5006609;28;20392;-86
2023/03/08 00:41:08;;;;;;;10.13;6.70;;;;;;;;;;5031294;28;20044;-87
2023/03/08 00:43:38;;;;;;;12.43;7.05;;;;;;;;;;5032382;28;20058;-86
2023/03/08 00:46:06;;;;;;;9.60;7.63;;;;;;;;;;5029521;28;20053;-86
2023/03/08 00:48:33;;;;;;;6.47;4.55;;;;;;;;;;5039180;28;20050;-86
2023/03/08 00:51:01;;;;;;;9.43;6.03;;;;;;;;;;5020523;28;20057;-87
2023/03/08 00:53:30;;;;;;;11.73;7.65;;;;;;;;;;5039615;28;20045;-88
2023/03/08 00:55:58;;;;;;;9.38;5.97;;;;;;;;;;5003706;28;20053;-86
2023/03/08 00:58:29;;;;;;;8.38;5.85;;;;;;;;;;5037103;28;20045;-87
2023/03/08 01:00:57;;;;;;;7.80;6.65;;;;;;;;;;5025377;28;20045;-87
2023/03/08 01:03:24;;;;;;;8.73;6.88;;;;;;;;;;5032642;28;20050;-86
2023/03/08 01:05:56;;;;;;;9.35;6.47;;;;;;;;;;5017666;28;20064;-86
2023/03/08 01:08:25;;;;;;;9.40;7.35;;;;;;;;;;5025066;28;20052;-86
2023/03/08 01:10:56;;;;;;;8.82;6.32;;;;;;;;;;5035748;28;20050;-88
2023/03/08 01:13:24;;;;;;;9.77;6.10;;;;;;;;;;5032805;28;20045;-86
2023/03/08 01:15:53;;;;;;;10.18;6.47;;;;;;;;;;5019680;28;20514;-87
2023/03/08 01:18:21;;;;;;;11.50;6.20;;;;;;;;;;5034960;28;20065;-86
2023/03/08 01:20:56;;;;;;;6.72;5.53;;;;;;;;;;5030478;28;20061;-87
2023/03/08 01:23:26;;;;;;;8.05;5.53;;;;;;;;;;5039109;28;20549;-86
2023/03/08 01:26:01;;;;;;;9.38;6.18;;;;;;;;;;5000754;28;20427;-86
2023/03/08 01:28:30;;;;;;;9.32;6.57;;;;;;;;;;5029038;28;20438;-87
2023/03/08 01:31:03;;;;;;;8.65;6.57;;;;;;;;;;5025565;28;20508;-86
2023/03/08 01:33:33;;;;;;;9.43;6.97;;;;;;;;;;5018891;28;20138;-88
2023/03/08 01:36:06;;;;;;;8.88;6.60;;;;;;;;;;5016155;28;20045;-86
2023/03/08 01:38:34;;;;;;;9.57;6.00;;;;;;;;;;5012059;28;20407;-85
2023/03/08 01:41:03;;;;;;;9.55;7.07;;;;;;;;;;5021202;28;20049;-87
2023/03/08 01:43:32;;;;;;;11.68;7.15;;;;;;;;;;5020684;28;20045;-86
2023/03/08 01:46:06;;;;;;;8.48;6.55;;;;;;;;;;5030964;28;20056;-86
2023/03/08 01:48:37;;;;;;;9.38;7.13;;;;;;;;;;5014143;28;20049;-86
2023/03/08 01:51:09;;;;;;;12.40;6.20;;;;;;;;;;5014581;28;20410;-87
2023/03/08 01:53:37;;;;;;;8.07;6.03;;;;;;;;;;5032808;28;20057;-86
2023/03/08 01:56:06;;;;;;;13.80;9.38;;;;;;;;;;5025813;28;20041;-89
2023/03/08 01:58:36;;;;;;;10.23;7.90;;;;;;;;;;5023310;28;20053;-87
2023/03/08 02:01:09;;;;;;;13.45;6.13;;;;;;;;;;5013549;28;20049;-86
2023/03/08 02:03:40;;;;;;;12.23;7.28;;;;;;;;;;5013746;28;20076;-88
2023/03/08 02:06:09;;;;;;;13.43;7.32;;;;;;;;;;5017049;28;20044;-86
2023/03/08 02:08:36;;;;;;;9.32;7.28;;;;;;;;;;5019760;28;20136;-86
2023/03/08 02:11:04;;;;;;;8.52;7.68;;;;;;;;;;5008623;28;20534;-86
2023/03/08 02:13:32;;;;;;;9.38;7.22;;;;;;;;;;5022180;28;20641;-86
2023/03/08 02:16:01;;;;;;;9.43;6.22;;;;;;;;;;5037553;28;20049;-87
2023/03/08 02:18:30;;;;;;;9.98;7.85;;;;;;;;;;5038224;28;20046;-86
2023/03/08 02:20:58;;;;;;;12.52;7.78;;;;;;;;;;5018343;28;20044;-86
2023/03/08 02:23:27;;;;;;;10.00;5.95;;;;;;;;;;5020495;28;20042;-86
2023/03/08 02:25:57;;;;;;;12.25;8.52;;;;;;;;;;5030583;28;20045;-88
2023/03/08 02:28:26;;;;;;;11.15;8.52;;;;;;;;;;5016661;28;20049;-86
2023/03/08 02:30:54;;;;;;;9.65;6.13;;;;;;;;;;5005738;28;20076;-86
2023/03/08 02:33:23;;;;;;;13.25;7.38;;;;;;;;;;5014882;28;20056;-86
2023/03/08 02:35:51;;;;;;;8.57;7.18;;;;;;;;;;5008256;28;20511;-87
2023/03/08 02:38:22;;;;;;;10.25;7.57;;;;;;;;;;5009050;28;20049;-86
2023/03/08 02:40:52;;;;;;;12.70;7.45;;;;;;;;;;5013839;28;20050;-87
2023/03/08 02:43:20;;;;;;;14.55;8.27;;;;;;;;;;5009115;28;20049;-86
2023/03/08 02:45:47;;;;;;;11.00;8.35;;;;;;;;;;5020217;28;20060;-86
2023/03/08 02:48:17;;;;;;;10.07;7.82;;;;;;;;;;5020856;28;20053;-86
2023/03/08 02:50:48;;;;;;;10.98;7.07;;;;;;;;;;5030366;28;20042;-87
2023/03/08 02:53:15;;;;;;;10.70;7.97;;;;;;;;;;5016033;28;20045;-88
2023/03/08 02:55:44;;;;;;;10.48;6.85;;;;;;;;;;5013432;28;20056;-86
2023/03/08 02:58:15;;;;;;;13.85;8.90;;;;;;;;;;5043924;28;20049;-86
2023/03/08 03:00:44;;;;;;;12.15;7.72;;;;;;;;;;5016103;28;20057;-86
2023/03/08 03:03:11;;;;;;;14.30;8.38;;;;;;;;;;5014527;28;20048;-86
2023/03/08 03:05:43;;;;;;;9.73;7.32;;;;;;;;;;5019112;28;20437;-88
2023/03/08 03:08:13;;;;;;;11.75;8.00;;;;;;;;;;5018907;28;20430;-86
2023/03/08 03:10:41;;;;;;;12.48;7.70;;;;;;;;;;5034970;28;20049;-86
2023/03/08 03:13:09;;;;;;;12.10;7.75;;;;;;;;;;5014063;28;20049;-86
2023/03/08 03:15:40;;;;;;;8.57;7.38;;;;;;;;;;5014685;28;20049;-88
2023/03/08 03:18:08;;;;;;;8.35;6.75;;;;;;;;;;5015851;28;20042;-87
2023/03/08 03:20:35;;;;;;;11.23;7.72;;;;;;;;;;5008892;28;20053;-86
2023/03/08 03:23:03;;;;;;;10.88;7.75;;;;;;;;;;5011749;28;20511;-87
2023/03/08 03:25:41;;;;;;;11.18;8.15;;;;;;;;;;5013726;28;20536;-87
2023/03/08 03:28:12;;;;;;;11.85;8.27;;;;;;;;;;5009273;28;20057;-86
2023/03/08 03:30:44;;;;;;;10.90;8.02;;;;;;;;;;5018969;28;20057;-87
2023/03/08 03:33:13;;;;;;;10.88;6.65;;;;;;;;;;5012980;28;20056;-86
2023/03/08 03:35:44;;;;;;;11.15;8.13;;;;;;;;;;5020602;28;20069;-86
2023/03/08 03:38:11;;;;;;;7.78;6.85;;;;;;;;;;5016677;28;20052;-86
2023/03/08 03:40:40;;;;;;;15.48;8.60;;;;;;;;;;5020780;28;20057;-86
2023/03/08 03:43:09;;;;;;;12.15;7.68;;;;;;;;;;5008224;28;20064;-87
2023/03/08 03:45:39;;;;;;;8.77;7.35;;;;;;;;;;5015449;28;20049;-88
2023/03/08 03:48:08;;;;;;;13.98;8.00;;;;;;;;;;5027638;28;20049;-86
2023/03/08 03:50:40;;;;;;;11.38;8.48;;;;;;;;;;5004620;28;20057;-86
2023/03/08 03:53:13;;;;;;;9.82;7.70;;;;;;;;;;5019197;28;20046;-86
2023/03/08 03:55:41;;;;;;;8.73;7.85;;;;;;;;;;5005197;28;20523;-86
2023/03/08 03:58:08;;;;;;;10.35;8.60;;;;;;;;;;5029339;28;20052;-86
2023/03/08 04:00:36;;;;;;;11.73;8.35;;;;;;;;;;5002652;28;20518;-86
2023/03/08 04:03:21;;;;;;;11.88;7.85;;;;;;;;;;5034074;28;20041;-86
2023/03/08 04:05:48;;;;;;;10.55;9.00;;;;;;;;;;5028821;28;20049;-87
2023/03/08 04:08:16;;;;;;;11.80;10.32;;;;;;;;;;5011257;28;20037;-86
2023/03/08 04:10:44;;;;;;;11.30;8.82;;;;;;;;;;5016240;28;20053;-86
2023/03/08 04:13:12;;;;;;;17.17;9.20;;;;;;;;;;5031976;28;20049;-86
2023/03/08 04:15:43;;;;;;;12.57;9.32;;;;;;;;;;5010937;28;20064;-86
2023/03/08 04:18:15;;;;;;;14.00;9.43;;;;;;;;;;5008993;28;20048;-86
2023/03/08 04:20:47;;;;;;;13.98;8.73;;;;;;;;;;4991213;28;20056;-86
2023/03/08 04:23:16;;;;;;;11.20;7.85;;;;;;;;;;5021609;28;20049;-86
2023/03/08 04:25:47;;;;;;;11.35;7.43;;;;;;;;;;5026878;28;20049;-87
2023/03/08 04:28:16;;;;;;;9.93;7.70;;;;;;;;;;5039138;28;20414;-86
2023/03/08 04:30:43;;;;;;;11.75;7.65;;;;;;;;;;5041006;28;20041;-85
2023/03/08 04:33:11;;;;;;;11.65;7.95;;;;;;;;;;5018656;28;20414;-85
2023/03/08 04:35:48;;;;;;;12.48;8.68;;;;;;;;;;4998835;28;20050;-86
2023/03/08 04:38:20;;;;;;;13.55;9.73;;;;;;;;;;5006681;28;20059;-86
2023/03/08 04:41:10;;;;;;;11.60;7.60;;;;;;;;;;4997654;28;21586;-86
2023/03/08 04:43:49;;;;;;;11.05;7.65;;;;;;;;;;5009316;28;20053;-86
2023/03/08 04:46:21;;;;;;;8.38;6.82;;;;;;;;;;5011492;28;20055;-87
2023/03/08 04:48:54;;;;;;;11.98;7.47;;;;;;;;;;5015283;28;20049;-86
2023/03/08 04:51:26;;;;;;;8.77;7.43;;;;;;;;;;5018409;28;20050;-86
2023/03/08 04:53:55;;;;;;;11.95;8.45;;;;;;;;;;5040653;28;20045;-85
2023/03/08 04:56:23;;;;;;;11.18;7.93;;;;;;;;;;5027827;28;20056;-86
2023/03/08 04:58:52;;;;;;;11.05;8.05;;;;;;;;;;5022936;28;20068;-86
2023/03/08 05:01:23;;;;;;;14.55;8.55;;;;;;;;;;5006823;28;20045;-86
2023/03/08 05:03:52;;;;;;;12.82;8.93;;;;;;;;;;5021011;28;20057;-85
2023/03/08 05:06:26;;;;;;;11.32;8.80;;;;;;;;;;5008598;28;20053;-86
2023/03/08 05:08:54;;;;;;;12.35;8.35;;;;;;;;;;5007747;28;20732;-86
2023/03/08 05:11:27;;;;;;;12.80;8.90;;;;;;;;;;5009453;28;20045;-85
2023/03/08 05:13:56;;;;;;;11.27;7.90;;;;;;;;;;5025771;28;20038;-86
2023/03/08 05:16:25;;;;;;;9.40;8.40;;;;;;;;;;5007643;28;20053;-85
2023/03/08 05:18:53;;;;;;;10.07;8.93;;;;;;;;;;5004574;28;20045;-86
2023/03/08 05:21:25;;;;;;;10.07;7.55;;;;;;;;;;5004489;28;20061;-85
2023/03/08 05:23:58;;;;;;;11.55;8.23;;;;;;;;;;5008254;28;20499;-86
2023/03/08 05:26:30;;;;;;;10.48;8.88;;;;;;;;;;5022954;28;20418;-86
2023/03/08 05:29:01;;;;;;;12.65;8.40;;;;;;;;;;5034907;28;20044;-85
2023/03/08 05:31:29;;;;;;;10.18;7.90;;;;;;;;;;5009549;28;20046;-86
2023/03/08 05:33:59;;;;;;;9.63;8.48;;;;;;;;;;5007342;28;20046;-86
2023/03/08 05:36:38;;;;;;;10.55;7.15;;;;;;;;;;5007059;28;20121;-86
2023/03/08 05:39:10;;;;;;;;;;;;;;;;;;5026016;28;20422;-86
2023/03/08 05:41:49;;;;;;;11.23;7.20;;;;;;;;;;5025794;28;19929;-85
2023/03/08 05:44:22;;;;;;;;;;;;;;;;;;5007589;28;20042;-86
2023/03/08 05:46:53;;;;;;;11.98;7.47;;;;;;;;;;4999060;28;19929;-89
2023/03/08 05:49:24;;;;;;;12.45;9.27;;;;;;;;;;5010907;28;20050;-86
2023/03/08 05:51:55;;;;;;;12.40;7.72;;;;;;;;;;5015736;28;20048;-87
2023/03/08 05:54:24;;;;;;;11.38;8.75;;;;;;;;;;5014781;28;20058;-86
2023/03/08 05:56:56;;;;;;;13.20;9.75;;;;;;;;;;4998919;28;20546;-86
2023/03/08 05:59:26;;;;;;;12.20;9.82;;;;;;;;;;5016557;28;20060;-86
2023/03/08 06:01:58;;;;;;;12.15;8.82;;;;;;;;;;5004399;28;20049;-86
2023/03/08 06:04:34;;;;;;;15.65;9.50;;;;;;;;;;5000477;28;20049;-86
2023/03/08 06:07:03;;;;;;;13.27;9.60;;;;;;;;;;5000969;28;20613;-87
2023/03/08 06:09:36;;;;;;;15.07;9.52;;;;;;;;;;5032902;22;20041;-87
2023/03/08 06:12:05;;;;;;;14.02;10.52;;;;;;;;;;5012267;28;20065;-87
2023/03/08 06:14:32;;;;;;;10.73;8.60;;;;;;;;;;5016628;28;20049;-87
2023/03/08 06:16:59;;;;;;;12.00;10.02;;;;;;;;;;5009895;28;20049;-87
2023/03/08 06:19:30;;;;;;;13.00;9.50;;;;;;;;;;4991944;28;20057;-87
2023/03/08 06:22:00;;;;;;;10.23;9.18;;;;;;;;;;5007597;28;20080;-87
2023/03/08 06:24:29;;;;;;;12.13;7.97;;;;;;;;;;4988158;28;20053;-87
2023/03/08 06:26:58;;;;;;;12.95;9.40;;;;;;;;;;4996793;28;20053;-87
2023/03/08 06:29:51;;;;;;;12.32;10.10;;;;;;;;;;4996572;28;20049;-87
2023/03/08 06:32:22;;;;;;;15.18;8.88;;;;;;;;;;4979713;28;20046;-87
2023/03/08 06:34:49;;;;;;;10.60;9.27;;;;;;;;;;4991424;28;20041;-87
2023/03/08 06:37:17;;;;;;;10.13;8.40;;;;;;;;;;4982112;28;20054;-87
2023/03/08 06:39:54;;;;;;;12.27;9.80;;;;;;;;;;4995222;28;20367;-87
2023/03/08 06:42:21;;;;;;;12.75;8.55;;;;;;;;;;5012013;28;20061;-87
2023/03/08 06:44:49;;;;;;;13.80;10.48;;;;;;;;;;4998226;28;20058;-87
2023/03/08 06:47:17;;;;;;;13.95;11.40;;;;;;;;;;4998335;28;20043;-87
2023/03/08 09:24:08;;;;;;;15.90;10.95;;;;;;;;;;5032159;28;20048;-85
2023/03/08 09:26:35;;;;;;;14.98;11.63;;;;;;;;;;5023708;28;20045;-86
2023/03/08 09:29:06;;;;;;;19.67;12.52;;;;;;;;;;5008690;28;20061;-85
2023/03/08 09:31:37;;;;;;;15.23;11.20;;;;;;;;;;5011590;28;20049;-86
2023/03/08 09:34:08;;;;;;;13.65;10.23;;;;;;;;;;5006746;28;20294;-86
2023/03/08 09:36:36;;;;;;;16.85;12.93;;;;;;;;;;5013122;28;20042;-85
2023/03/08 09:39:05;;;;;;;15.57;11.15;;;;;;;;;;5024174;28;20038;-85
2023/03/08 09:41:54;;;;;;;15.55;10.80;;;;;;;;;;4994789;28;20150;-85
2023/03/08 09:44:53;;;;;;;16.55;10.93;;;;;;;;;;5006426;28;20049;-85
2023/03/08 09:47:31;;;;;;;16.40;10.75;;;;;;;;;;5009045;28;20542;-85
2023/03/08 10:08:44;;;;;;;16.48;12.55;;;;;;;;;;6185749;23;20272;-85
2023/03/08 10:11:16;;;;;;;20.27;11.30;;;;;;;;;;4984145;28;20414;-85
2023/03/08 10:13:47;;;;;;;18.98;13.38;;;;;;;;;;4970088;28;20350;-85
2023/03/08 10:16:19;;;;;;;18.45;14.45;;;;;;;;;;4977466;28;20038;-85
2023/03/08 10:18:54;;;;;;;16.58;12.95;;;;;;;;;;4974595;28;20484;-85
2023/03/08 10:21:23;;;;;;;17.60;11.55;;;;;;;;;;4972250;28;20054;-85
2023/03/08 10:23:58;;;;;;;17.17;12.07;;;;;;;;;;4969595;28;20650;-85
2023/03/08 10:26:26;;;;;;;18.25;11.93;;;;;;;;;;4974363;28;20043;-85
2023/03/08 10:28:56;;;;;;;13.55;10.35;;;;;;;;;;4972566;28;20058;-85
2023/03/08 10:31:27;;;;;;;19.15;12.20;;;;;;;;;;4972760;28;20047;-85
2023/03/08 10:34:02;;;;;;;15.45;12.60;;;;;;;;;;4974030;28;20081;-85
2023/03/08 10:36:30;;;;;;;17.17;12.77;;;;;;;;;;4978151;28;20050;-85
2023/03/08 10:39:06;;;;;;;17.10;13.60;;;;;;;;;;4952376;28;20058;-84
2023/03/08 10:41:41;;;;;;;17.35;12.30;;;;;;;;;;4973475;28;20054;-84
2023/03/08 10:44:13;;;;;;;18.20;12.75;;;;;;;;;;4970115;28;20062;-85
2023/03/08 10:46:47;;;;;;;14.70;11.25;;;;;;;;;;4981309;28;20499;-84
2023/03/08 10:49:19;;;;;;;15.10;10.10;;;;;;;;;;4971669;28;20055;-84
2023/03/08 10:51:53;;;;;;;13.18;11.43;;;;;;;;;;4979992;28;20401;-85
2023/03/08 10:54:22;;;;;;;12.82;10.80;;;;;;;;;;4988309;28;20062;-85
2023/03/08 10:56:55;;;;;;;12.38;9.70;;;;;;;;;;4972313;28;20046;-84
2023/03/08 10:59:31;;;;;;;15.15;10.82;;;;;;;;;;4971592;28;20053;-84
2023/03/08 11:02:00;;;;;;;16.42;10.13;;;;;;;;;;4981312;28;20127;-85
2023/03/08 11:04:31;;;;;;;14.05;11.70;;;;;;;;;;4958566;28;20057;-85
2023/03/08 11:07:11;;;;;;;13.52;10.93;;;;;;;;;;4971967;28;20404;-85
2023/03/08 11:09:41;;;;;;;14.23;11.35;;;;;;;;;;4971506;28;20058;-84
2023/03/08 11:12:22;;;;;;;17.40;13.40;;;;;;;;;;4979022;28;20715;-85
2023/03/08 11:14:52;;;;;;;15.65;12.85;;;;;;;;;;4965135;28;20059;-85
2023/03/08 11:17:23;;;;;;;21.75;14.30;;;;;;;;;;4971207;28;20508;-85
2023/03/08 11:34:45;;;;;;;13.95;12.02;;;;;;;;;;4930689;29;20047;-85
2023/03/08 11:37:21;;;;;;;15.05;10.05;;;;;;;;;;4934781;29;20047;-85
2023/03/08 11:39:55;;;;;;;12.88;11.55;;;;;;;;;;4936169;29;20070;-84
2023/03/08 11:42:30;;;;;;;12.68;10.88;;;;;;;;;;4949212;29;20043;-84
2023/03/08 11:45:08;;;;;;;15.15;10.88;;;;;;;;;;4942769;28;20051;-84
2023/03/08 11:47:56;;;;;;;12.40;9.60;;;;;;;;;;4949806;29;20058;-85
2023/03/08 11:50:29;;;;;;;16.40;11.15;;;;;;;;;;4948736;29;20062;-84
2023/03/08 11:53:11;;;;;;;11.70;9.57;;;;;;;;;;4950647;28;20417;-84
2023/03/08 11:56:01;;;;;;;15.35;11.38;;;;;;;;;;4946116;29;20122;-85
2023/03/08 11:58:35;;;;;;;17.67;11.93;;;;;;;;;;4947814;29;20058;-84
2023/03/08 12:01:09;;;;;;;16.45;11.38;;;;;;;;;;4951255;28;20055;-84
2023/03/08 12:03:39;;;;;;;17.88;11.07;;;;;;;;;;4943945;29;20055;-84
2023/03/08 12:06:12;;;;;;;13.13;10.73;;;;;;;;;;4952373;29;20074;-85
2023/03/08 12:08:44;;;;;;;13.57;10.63;;;;;;;;;;4951042;29;20055;-84
2023/03/08 12:11:16;;;;;;;;;;;;;;;;;;5015223;23;20494;-82
2023/03/08 12:13:46;;;;;;;11.85;10.48;;;;;;;;;;5027060;28;20319;-82
2023/03/08 12:16:18;;;;;;;13.35;10.30;;;;;;;;;;5019224;28;20408;-83
2023/03/08 12:18:48;;;;;;;13.65;11.82;;;;;;;;;;5019367;28;20425;-83
2023/03/08 13:15:39;;;;;;;17.48;13.18;;;;;;;;;;5342978;23;20050;-83
2023/03/08 13:18:14;;;;;;;16.65;10.85;;;;;;;;;;5028264;28;20054;-82
2023/03/08 13:40:29;;;;;;;29.35;20.90;;;;;;;;;;5449785;23;20050;-83
2023/03/08 13:42:58;;;;;;;17.30;13.70;;;;;;;;;;4992666;28;20062;-83
2023/03/08 13:45:28;;;;;;;17.10;12.70;;;;;;;;;;4994317;28;20497;-84
2023/03/08 13:48:00;;;;;;;19.45;13.82;;;;;;;;;;4994455;28;20055;-84
2023/03/08 13:50:30;;;;;;;17.83;13.43;;;;;;;;;;4985935;28;20042;-84
2023/03/08 13:52:58;;;;;;;20.98;13.13;;;;;;;;;;4991767;28;20038;-84
2023/03/08 13:55:32;;;;;;;20.27;14.32;;;;;;;;;;4996187;28;20053;-83
2023/03/08 13:57:59;;;;;;;21.73;15.77;;;;;;;;;;4991596;28;20046;-84
2023/03/08 14:00:30;;;;;;;16.33;14.63;;;;;;;;;;5002131;28;20053;-83
2023/03/08 14:02:57;;;;;;;23.50;16.98;;;;;;;;;;4993411;28;20054;-83
2023/03/08 14:05:26;;;;;;;22.58;15.65;;;;;;;;;;4994981;28;20062;-83
2023/03/08 14:07:57;;;;;;;18.38;14.63;;;;;;;;;;4992223;28;20057;-82
2023/03/08 14:10:36;;;;;;;23.73;18.23;;;;;;;;;;4984372;28;20050;-83
2023/03/08 14:13:05;;;;;;;21.85;17.20;;;;;;;;;;4992087;28;20057;-82
2023/03/08 14:15:35;;;;;;;28.73;19.10;;;;;;;;;;4990766;28;20062;-82
2023/03/08 14:18:07;;;;;;;26.15;19.48;;;;;;;;;;4972683;28;20054;-82
2023/03/08 14:20:36;;;;;;;20.23;17.55;;;;;;;;;;4999807;28;20496;-82
2023/03/08 14:23:04;;;;;;;21.30;18.15;;;;;;;;;;4968297;28;20058;-83
2023/03/08 14:25:32;;;;;;;21.83;18.05;;;;;;;;;;4996979;28;20061;-83
2023/03/08 14:28:00;;;;;;;27.95;18.23;;;;;;;;;;4993494;28;20046;-83
2023/03/08 14:30:29;;;;;;;35.55;27.48;;;;;;;;;;5000452;28;20401;-83
2023/03/08 14:33:02;;;;;;;27.98;23.95;;;;;;;;;;4995843;28;20065;-83
2023/03/08 14:35:35;;;;;;;33.85;26.95;;;;;;;;;;4997012;28;20045;-83
2023/03/08 14:38:02;;;;;;;29.15;21.13;;;;;;;;;;4991838;28;20507;-82
2023/03/08 14:40:32;;;;;;;30.05;24.05;;;;;;;;;;5000419;28;20053;-82
2023/03/08 14:43:05;;;;;;;27.98;22.95;;;;;;;;;;4984382;28;20058;-83
2023/03/08 14:45:37;;;;;;;30.30;23.08;;;;;;;;;;4992788;28;20066;-82
2023/03/08 14:48:22;;;;;;;31.17;23.02;;;;;;;;;;4993956;28;20053;-82
2023/03/08 14:50:55;;;;;;;27.52;20.20;;;;;;;;;;4997983;28;20050;-83
2023/03/08 14:53:29;;;;;;;29.00;20.20;;;;;;;;;;4990882;28;20061;-83
2023/03/08 14:55:57;;;;;;;26.25;20.30;;;;;;;;;;5001641;28;20058;-83
2023/03/08 14:58:30;;;;;;;25.63;19.75;;;;;;;;;;4989609;28;20041;-84
2023/03/08 15:00:59;;;;;;;22.27;17.95;;;;;;;;;;4992410;28;20518;-83
2023/03/08 15:03:27;;;;;;;21.85;17.52;;;;;;;;;;4981488;28;20050;-83
2023/03/08 15:06:01;;;;;;;27.13;19.55;;;;;;;;;;4978156;28;20057;-82
2023/03/08 15:08:31;;;;;;;29.55;20.02;;;;;;;;;;4989009;28;20058;-83
2023/03/08 15:10:58;;;;;;;26.40;20.30;;;;;;;;;;4989890;28;20045;-82
2023/03/08 15:13:25;;;;;;;24.75;19.17;;;;;;;;;;4995917;28;20050;-84
2023/03/08 15:15:59;;;;;;;27.88;19.48;;;;;;;;;;4973535;28;20062;-84
2023/03/08 15:18:30;;;;;;;24.10;19.45;;;;;;;;;;4988721;28;20404;-83
2023/03/08 15:29:51;;;;;;;34.70;25.40;;;;;;;;;;5348380;23;20050;-92
2023/03/08 15:32:22;;;;;;;31.60;25.15;;;;;;;;;;4974510;28;20046;-92
2023/03/08 15:34:49;;;;;;;33.03;27.08;;;;;;;;;;4976663;28;20038;-93
2023/03/08 15:37:19;;;;;;;25.83;22.60;;;;;;;;;;4983875;28;20126;-93
2023/03/08 15:39:47;;;;;;;30.08;21.80;;;;;;;;;;4997041;28;20065;-93
2023/03/08 15:42:15;;;;;;;32.08;22.38;;;;;;;;;;5002552;28;20032;-92
2023/03/08 15:44:46;;;;;;;30.40;23.20;;;;;;;;;;4996465;28;20061;-92
2023/03/08 15:47:17;;;;;;;24.92;21.45;;;;;;;;;;4974169;28;20046;-93
2023/03/08 15:49:49;;;;;;;31.15;21.10;;;;;;;;;;4975186;28;20050;-92
2023/03/08 15:52:17;;;;;;;28.13;21.27;;;;;;;;;;4973153;28;20051;-93
2023/03/08 15:54:49;;;;;;;30.58;22.35;;;;;;;;;;4975227;28;20058;-92
2023/03/08 15:57:16;;;;;;;28.10;21.30;;;;;;;;;;4982128;28;20042;-92
2023/03/08 15:59:44;;;;;;;23.83;20.85;;;;;;;;;;4993968;28;20049;-92
2023/03/08 16:02:14;;;;;;;33.30;22.23;;;;;;;;;;4989015;28;20607;-93
2023/03/08 16:04:46;;;;;;;29.80;21.00;;;;;;;;;;4971195;28;20062;-92
2023/03/08 16:07:19;;;;;;;28.38;22.48;;;;;;;;;;4988389;28;20634;-92
2023/03/08 16:09:47;;;;;;;30.55;21.40;;;;;;;;;;4957852;28;20054;-92
2023/03/08 16:12:15;;;;;;;27.88;21.17;;;;;;;;;;4990039;28;20046;-92
2023/03/08 16:14:47;;;;;;;30.83;20.23;;;;;;;;;;4988622;28;20069;-93
2023/03/08 16:17:14;;;;;;;24.02;19.25;;;;;;;;;;4973873;28;20801;-93
2023/03/08 16:19:42;;;;;;;23.90;19.05;;;;;;;;;;4973814;28;20050;-93
2023/03/08 16:22:15;;;;;;;23.60;18.70;;;;;;;;;;4971960;28;20058;-92
2023/03/08 16:24:43;;;;;;;26.67;20.05;;;;;;;;;;4986985;28;20058;-92
2023/03/08 16:27:15;;;;;;;26.08;20.05;;;;;;;;;;4982146;28;20538;-93
2023/03/08 16:29:50;;;;;;;29.98;23.80;;;;;;;;;;4973955;28;20419;-92
2023/03/08 16:32:23;;;;;;;36.50;22.45;;;;;;;;;;4986432;28;20447;-92
2023/03/08 16:34:50;;;;;;;36.63;19.25;;;;;;;;;;4966940;28;20509;-92
2023/03/08 16:37:21;;;;;;;31.48;26.33;;;;;;;;;;4973195;28;20038;-92
2023/03/08 16:39:50;;;;;;;27.85;24.67;;;;;;;;;;4972809;28;20050;-93
2023/03/08 16:42:23;;;;;;;31.98;26.45;;;;;;;;;;4970048;28;20530;-92
2023/03/08 16:44:52;;;;;;;35.42;26.35;;;;;;;;;;4985463;28;20054;-92
2023/03/08 16:47:24;;;;;;;30.77;25.63;;;;;;;;;;4966087;28;20506;-93
2023/03/08 16:49:52;;;;;;;40.85;31.42;;;;;;;;;;4988602;28;20835;-92
2023/03/08 16:52:21;;;;;;;42.97;31.48;;;;;;;;;;4972311;28;20046;-93
2023/03/08 16:54:53;;;;;;;32.90;28.25;;;;;;;;;;4986733;28;20043;-93
2023/03/08 16:57:25;;;;;;;;;;;;;;;;;;4976463;28;20055;-93
2023/03/08 17:00:00;;;;;;;38.90;32.83;;;;;;;;;;5002022;28;19921;-93
2023/03/08 17:02:27;;;;;;;43.33;33.15;;;;;;;;;;4972513;28;20595;-93
2023/03/08 17:07:42;;;;;;;41.80;32.92;;;;;;;;;;4984155;28;20073;-93
2023/03/08 17:10:12;;;;;;;31.58;24.02;;;;;;;;;;5005377;28;20411;-93
2023/03/08 17:12:46;;;;;;;27.70;22.02;;;;;;;;;;4987081;28;20054;-92
2023/03/08 17:15:15;;;;;;;26.63;19.45;;;;;;;;;;4982661;28;20074;-92
2023/03/08 17:17:45;;;;;;;22.90;19.88;;;;;;;;;;4981855;28;20066;-93
2023/03/08 17:20:14;;;;;;;23.77;19.27;;;;;;;;;;4966068;28;20423;-92
2023/03/08 17:22:46;;;;;;;25.90;21.42;;;;;;;;;;4984409;28;20050;-92
2023/03/08 17:25:15;;;;;;;14.82;11.38;;;;;;;;;;4986870;28;20054;-93
2023/03/08 17:27:47;;;;;;;17.85;12.77;;;;;;;;;;4971311;28;20434;-93
2023/03/08 17:30:16;;;;;;;16.95;14.98;;;;;;;;;;4977335;28;20054;-93
2023/03/08 17:32:46;;;;;;;26.23;20.83;;;;;;;;;;5001623;28;20424;-93
2023/03/08 17:35:15;;;;;;;22.90;17.88;;;;;;;;;;4986390;28;20073;-93
2023/03/08 17:37:50;;;;;;;17.05;13.57;;;;;;;;;;4985657;28;20427;-92
2023/03/08 17:40:22;;;;;;;16.55;14.93;;;;;;;;;;4977575;28;20054;-93
2023/03/08 17:42:51;;;;;;;17.70;14.32;;;;;;;;;;4985318;28;20045;-93
2023/03/08 17:45:33;;;;;;;17.63;15.18;;;;;;;;;;4984729;28;20444;-94
2023/03/08 17:48:04;;;;;;;16.10;12.13;;;;;;;;;;4951341;28;20415;-93
2023/03/08 17:56:58;;;;;;;10.63;9.45;;;;;;;;;;4981445;28;20512;-93
2023/03/08 18:06:27;;;;;;;8.57;7.07;;;;;;;;;;4977674;28;20546;-93
2023/03/08 18:08:55;;;;;;;8.70;7.80;;;;;;;;;;4981478;28;20702;-93
2023/03/08 18:11:24;;;;;;;6.95;6.18;;;;;;;;;;4995445;23;20595;-87
2023/03/08 18:13:51;;;;;;;7.60;6.68;;;;;;;;;;5015603;23;20497;-87
2023/03/08 18:16:19;;;;;;;8.05;7.25;;;;;;;;;;5012328;28;20050;-88
2023/03/08 18:18:48;;;;;;;10.10;7.68;;;;;;;;;;5006746;28;20051;-88
2023/03/08 18:21:16;;;;;;;8.10;5.57;;;;;;;;;;5009748;28;20538;-88
2023/03/08 18:23:44;;;;;;;5.03;4.60;;;;;;;;;;5007510;28;20050;-88
2023/03/08 18:26:15;;;;;;;7.57;5.65;;;;;;;;;;5012657;28;20419;-88
2023/03/08 18:28:46;;;;;;;5.18;4.68;;;;;;;;;;5008577;28;20057;-88
2023/03/08 18:31:18;;;;;;;6.80;5.47;;;;;;;;;;5008126;28;20069;-88
2023/03/08 18:33:46;;;;;;;6.05;5.40;;;;;;;;;;5009911;28;20054;-88
2023/03/08 18:36:13;;;;;;;8.60;6.75;;;;;;;;;;5013045;28;20049;-88
2023/03/08 18:38:41;;;;;;;6.80;6.20;;;;;;;;;;5002744;28;20047;-88
2023/03/08 18:41:13;;;;;;;6.90;6.20;;;;;;;;;;4993222;28;20057;-88
2023/03/08 18:43:46;;;;;;;5.15;4.55;;;;;;;;;;4988195;28;20058;-88
2023/03/08 18:46:14;;;;;;;14.40;11.38;;;;;;;;;;4993154;28;20080;-88
2023/03/08 18:48:41;;;;;;;21.25;16.90;;;;;;;;;;4978839;28;20053;-88
2023/03/08 18:51:09;;;;;;;16.95;13.82;;;;;;;;;;4988830;28;20061;-88
2023/03/08 18:53:39;;;;;;;6.90;6.22;;;;;;;;;;4986566;28;20452;-88
2023/03/08 18:56:08;;;;;;;5.05;4.15;;;;;;;;;;4984833;28;20050;-89
2023/03/08 18:58:35;;;;;;;5.32;4.38;;;;;;;;;;4987823;28;20668;-88
2023/03/08 19:01:12;;;;;;;6.05;4.72;;;;;;;;;;4986300;28;20058;-89
2023/03/08 19:03:41;;;;;;;4.20;3.58;;;;;;;;;;4991059;28;20056;-88
2023/03/08 19:06:09;;;;;;;5.53;4.15;;;;;;;;;;4969916;28;20057;-88
2023/03/08 19:08:42;;;;;;;4.77;4.10;;;;;;;;;;4976576;28;20080;-88
2023/03/08 19:11:11;;;;;;;6.25;5.20;;;;;;;;;;4987657;28;20676;-89
2023/03/08 19:13:41;;;;;;;8.60;7.15;;;;;;;;;;4977749;28;20126;-88
2023/03/08 19:16:21;;;;;;;6.00;5.37;;;;;;;;;;4985944;28;20067;-88
2023/03/08 19:18:49;;;;;;;7.90;6.57;;;;;;;;;;4978637;28;20057;-89
2023/03/08 19:21:20;;;;;;;7.35;6.15;;;;;;;;;;4969761;28;20191;-88
2023/03/08 19:23:50;;;;;;;14.50;12.38;;;;;;;;;;4969869;28;20061;-88
2023/03/08 19:26:36;;;;;;;22.55;17.65;;;;;;;;;;4987051;28;20066;-89
2023/03/08 19:29:12;;;;;;;11.95;10.68;;;;;;;;;;4987380;28;20046;-89
2023/03/08 19:31:45;;;;;;;8.63;7.82;;;;;;;;;;4989285;28;20042;-88
2023/03/08 19:34:16;;;;;;;17.67;13.57;;;;;;;;;;4986367;28;20057;-89
2023/03/08 19:36:44;;;;;;;12.75;11.38;;;;;;;;;;4990177;28;20547;-88